Terminal Aerodrome Forecast
Issued by NWS Mt. Holly, NJ

Home | Current Version | Previous Version | Text Only | Print | Product List | Glossary On
Versions: 1 2 3 4 5 6 7 8 9 10 11 12 13 14 15 16 17 18 19 20 21 22 23 24 25 26 27 28 29 30 31 32 33 34 35 36 37 38 39 40 41 42 43 44 45 46 47 48 49 50
000
FTUS41 KPHI 040554
TAFABE
TAF
KABE 040554Z 0406/0506 VRB03KT P6SM VCTS SCT070CB BKN150
     FM040635 29016G28KT 1SM TSRA BKN040CB
     FM040730 VRB03KT P6SM BKN080
      TEMPO 0410/0412 5SM BR
     FM041500 25008G18KT P6SM SCT080
     FM042100 28012G20KT P6SM SCT040
     FM050000 30004KT P6SM SKC=

USA.gov is the U.S. government's official web portal to all federal, state and local government web resources and services.